Record high temperature 44.9°C Record low temperature -0.3°C Record high gust 87.3 km/h Record high average 77.7 km/h Record daily rain 484.8 mm Record low windchill -5.8°C Record high barometer 1043.6 hPa Record low barometer 978.0 hPa
Daily high pressure 1028.8 mb Daily low pressure 1026.1 mb Daily low windchill 11.3°C Daily high heat index 18.1°C Daily high gust speed 20.4 kmh WSW Daily high average speed 10.0 kmh SW
Estación de MeteoMurcia.com -------- Murcia-Puente Tocinos
Ultima grabación a: 13:50 Data: 10 December 2018, time of next update: 14:00
Tiempo actualmostly clear Temperatura actual18.0°C (64.4°F) (Indice de Calor18.0°C ), Temperatura aparente 17.9°C
Temperatura máxima (desde medianoche)18.1°C at: 00:34 Temperatura mínima (desde medianoche)11.3°C at: 09:23
Velocidad media del viento (diez minutos)3.7 kmh (2.0 kts) Dirección del viento (diez minutos)N (1°)
Indice de Calor18.0°C ráfagas maxima (última hora)11.8 kmh (6.4 kts) at: 13:07
ráfagas maxima (desde medianoche)20.4 kmh (11.0 kts) at: 00:31 Maximo media de un minuto (desde medianoche)10.0 kmh (5.4 kts) at: 00:16
Lluvia (última hora)0.0 mm Lluvia (desde medianoche)0.0 mm (0.00 in.)---
Lluvia Este mes 0.0 mm (0.00 in.) Lluvia Hasta la fecha este año350.4 mm (13.80 in.)
Lluvia máxima por minuto (última hora)0.0 mm/min Lluvia maxima por hora (últimas 6 horas)0.0 mm/hora
Lluvia de ayer 0.0 mm Punto de rocío 11.3°C (Wet Bulb :14.3°C )
Humedad 65 %, Humidex 19.9°C Barómetro corregido a msl1026.1 mb
cambio de presión-1.3 mb (última hora) Tendencia (últimas 1 hora)BAJANDO
cambio de presión (últimas 12 horas)-0.6 mb cambio de presión (últimas 6 horas)-0.9 mb
Current Temp. Interna 22.5°C
Current Hum. Interna 46%


Última imagen cámara web


Weather report/warning/Metars

Alicante / El Altet, Spain (LEAL) 38-17N 000-33W 31M
Dec 10, 2018 - 07:30 AM EST / 2018.12.10 1230 UTC
Wind: from the E (100 degrees) at 8 MPH (7 KT) (direction variable):0
Visibility: greater than 7 mile(s):0
Sky conditions: mostly clear
Temperature: 62 F (17 C)
Dew Point: 51 F (11 C)
Relative Humidity: 67%
Pressure (altimeter): 30.36 in. Hg (1028 hPa)
ob: LEAL 101230Z 10007KT 070V140 9999 FEW020 17/11 Q1028 NOSIG
cycle: 12
Murcia / San Javier, Spain (LELC) 37-47N 000-48W 3M
Dec 10, 2018 - 07:30 AM EST / 2018.12.10 1230 UTC
Wind: from the ENE (070 degrees) at 7 MPH (6 KT) (direction variable):0
Visibility: greater than 7 mile(s):0
Sky conditions: mostly clear
Temperature: 64 F (18 C)
Dew Point: 55 F (13 C)
Relative Humidity: 72%
Pressure (altimeter): 30.36 in. Hg (1028 hPa)
ob: LELC 101230Z 07006KT 040V100 9999 FEW025 18/13 Q1028 NOSIG
cycle: 12
Murcia / Alcantarilla, Spain (LERI) 37-57N 001-14W 75M
Dec 10, 2018 - 07:00 AM EST / 2018.12.10 1200 UTC
Wind: from the E (090 degrees) at 3 MPH (3 KT) (direction variable):0
Visibility: greater than 7 mile(s):0
Sky conditions: mostly clear
Temperature: 64 F (18 C)
Dew Point: 51 F (11 C)
Relative Humidity: 63%
Pressure (altimeter): 30.36 in. Hg (1028 hPa)
ob: LERI 101200Z 09003KT 040V160 9999 FEW020 18/11 Q1028 NOSIG
cycle: 12
Gerona / Costa Brava, Spain (LEGE) 41-54N 002-46E 129M
Dec 10, 2018 - 07:30 AM EST / 2018.12.10 1230 UTC
Wind: Variable at 2 MPH (2 KT):0
Visibility: 4 mile(s):0
Temperature: 55 F (13 C)
Dew Point: 44 F (7 C)
Relative Humidity: 66%
Pressure (altimeter): 30.36 in. Hg (1028 hPa)
ob: LEGE 101230Z VRB02KT 8000 NSC 13/07 Q1028
cycle: 12
Madri-Colmenar, Spain (LECV) 40-39N 003-44W
Dec 10, 2018 - 07:00 AM EST / 2018.12.10 1200 UTC
Wind: Variable at 2 MPH (2 KT):0
Visibility: greater than 7 mile(s):0
Temperature: 59 F (15 C)
Dew Point: 19 F (-7 C)
Relative Humidity: 21%
Pressure (altimeter): 30.42 in. Hg (1030 hPa)
ob: LECV 101200Z VRB02KT CAVOK 15/M07 Q1030
cycle: 12
Asturias / Aviles, Spain (LEAS) 43-33N 006-02W 130M
Dec 10, 2018 - 07:30 AM EST / 2018.12.10 1230 UTC
Wind: from the E (100 degrees) at 7 MPH (6 KT) (direction variable):0
Visibility: greater than 7 mile(s):0
Temperature: 55 F (13 C)
Dew Point: 46 F (8 C)
Relative Humidity: 71%
Pressure (altimeter): 30.42 in. Hg (1030 hPa)
ob: LEAS 101230Z 10006KT 070V160 CAVOK 13/08 Q1030 NOSIG
cycle: 12
Almeria / Aeropuerto, Spain (LEAM) 36-51N 002-23W 21M
Dec 10, 2018 - 07:30 AM EST / 2018.12.10 1230 UTC
Wind: from the SW (230 degrees) at 6 MPH (5 KT) (direction variable):0
Visibility: greater than 7 mile(s):0
Temperature: 64 F (18 C)
Dew Point: 51 F (11 C)
Relative Humidity: 63%
Pressure (altimeter): 30.33 in. Hg (1027 hPa)
ob: LEAM 101230Z 23005KT 200V260 CAVOK 18/11 Q1027
cycle: 12
Pamplona / Noain, Spain (LEPP) 42-46N 001-38W 453M
Dec 10, 2018 - 07:30 AM EST / 2018.12.10 1230 UTC
Wind: from the NW (320 degrees) at 13 MPH (11 KT) (direction variable):0
Visibility: greater than 7 mile(s):0
Sky conditions: mostly clear
Temperature: 53 F (12 C)
Dew Point: 41 F (5 C)
Relative Humidity: 62%
Pressure (altimeter): 30.42 in. Hg (1030 hPa)
ob: LEPP 101230Z 32011KT 280V350 9999 FEW027 12/05 Q1030
cycle: 12
Badajoz / Talavera La Real, Spain (LEBZ) 38-53N 006-49W 192M
Dec 10, 2018 - 07:00 AM EST / 2018.12.10 1200 UTC
Wind: from the ENE (070 degrees) at 8 MPH (7 KT):0
Visibility: greater than 7 mile(s):0
Temperature: 60 F (16 C)
Dew Point: 50 F (10 C)
Relative Humidity: 67%
Pressure (altimeter): 30.36 in. Hg (1028 hPa)
ob: LEBZ 101200Z 07007KT CAVOK 16/10 Q1028
cycle: 12
Albacete / Los Llanos, Spain (LEAB) 38-57N 001-51W 704M
Dec 10, 2018 - 07:00 AM EST / 2018.12.10 1200 UTC
Wind: from the NW (310 degrees) at 3 MPH (3 KT) (direction variable):0
Visibility: greater than 7 mile(s):0
Temperature: 51 F (11 C)
Dew Point: 35 F (2 C)
Relative Humidity: 53%
Pressure (altimeter): 30.39 in. Hg (1029 hPa)
ob: LEAB 101200Z 31003KT 290V360 CAVOK 11/02 Q1029 NOSIG
cycle: 12



La informacion se graba a intervalos de 2 minutos, pero hay info grabada cada minuto. Optimizado para 800*600 y Color verdadero. Use el boton de

Use the RECARGA en su navegador para recojer la ulima info.

Clicar aquí para regarga diaria de medias/extremas del mes














Created by "Weather Display" software version 10.37S at this start time/date 23:04:47 04/11/2018

La estación de MeteoMurcia.com, publica sus datos en los siguientes proyectos:

Meteoclimatic www.awekas.at

W3Counter
Web Analytics